Time,TemperatureF,DewpointF,PressureIn,WindDirection,WindDirectionDegrees,WindSpeedMPH,WindSpeedGustMPH,Humidity,HourlyPrecipIn,Conditions,Clouds,dailyrainin,SoftwareType,DateUTC
2013-03-01 00:03:00,51.2,49.3,30.36,NW,305,0.0,-999.0,93,-99.99,,,-99.99,KANE Geotech, Inc.,2013-03-01 08:03:00,
2013-03-01 00:08:00,51.2,49.3,30.36,NW,305,0.0,-999.0,93,-99.99,,,-99.99,KANE Geotech, Inc.,2013-03-01 08:08:00,
2013-03-01 00:13:00,51.1,49.3,30.37,NW,305,0.0,-999.0,93,-99.99,,,-99.99,KANE Geotech, Inc.,2013-03-01 08:13:00,
2013-03-01 00:18:00,51.0,49.1,30.37,NW,305,0.0,-999.0,93,-99.99,,,-99.99,KANE Geotech, Inc.,2013-03-01 08:18:00,
2013-03-01 00:23:00,51.2,49.5,30.37,NW,305,0.0,-999.0,93,-99.99,,,-99.99,KANE Geotech, Inc.,2013-03-01 08:23:00,
2013-03-01 00:28:00,51.3,49.7,30.37,WSW,255,0.0,-999.0,94,-99.99,,,-99.99,KANE Geotech, Inc.,2013-03-01 08:28:00,
2013-03-01 00:33:00,51.0,49.3,30.37,WSW,255,0.0,-999.0,93,-99.99,,,-99.99,KANE Geotech, Inc.,2013-03-01 08:33:00,
2013-03-01 00:38:00,50.8,48.9,30.37,WSW,255,0.0,-999.0,93,-99.99,,,-99.99,KANE Geotech, Inc.,2013-03-01 08:38:00,
2013-03-01 00:43:00,50.5,48.7,30.37,WSW,255,0.0,-999.0,93,-99.99,,,-99.99,KANE Geotech, Inc.,2013-03-01 08:43:00,
2013-03-01 00:48:00,50.4,48.7,30.37,WSW,255,0.0,-999.0,93,-99.99,,,-99.99,KANE Geotech, Inc.,2013-03-01 08:48:00,
2013-03-01 00:53:00,50.2,48.6,30.37,WSW,255,0.0,-999.0,94,-99.99,,,-99.99,KANE Geotech, Inc.,2013-03-01 08:53:00,
2013-03-01 00:58:00,50.3,48.9,30.37,WSW,255,0.0,-999.0,94,-99.99,,,-99.99,KANE Geotech, Inc.,2013-03-01 08:58:00,
2013-03-01 01:03:00,50.2,48.7,30.37,West,263,0.0,-999.0,94,-99.99,,,-99.99,KANE Geotech, Inc.,2013-03-01 09:03:00,
2013-03-01 01:08:00,50.3,48.9,30.37,East,101,2.6,-999.0,94,-99.99,,,-99.99,KANE Geotech, Inc.,2013-03-01 09:08:00,
2013-03-01 01:13:00,50.0,48.3,30.37,ESE,109,0.0,-999.0,93,-99.99,,,-99.99,KANE Geotech, Inc.,2013-03-01 09:13:00,
2013-03-01 01:18:00,49.9,48.1,30.37,NE,43,0.0,-999.0,93,-99.99,,,-99.99,KANE Geotech, Inc.,2013-03-01 09:18:00,
2013-03-01 01:23:00,49.8,48.2,30.37,East,81,0.0,-999.0,93,-99.99,,,-99.99,KANE Geotech, Inc.,2013-03-01 09:23:00,
2013-03-01 01:28:00,49.7,48.1,30.37,NE,36,0.0,-999.0,94,-99.99,,,-99.99,KANE Geotech, Inc.,2013-03-01 09:28:00,
2013-03-01 01:33:00,49.5,47.8,30.37,NE,45,0.0,-999.0,93,-99.99,,,-99.99,KANE Geotech, Inc.,2013-03-01 09:33:00,
2013-03-01 01:38:00,49.4,47.7,30.37,ENE,73,0.0,-999.0,93,-99.99,,,-99.99,KANE Geotech, Inc.,2013-03-01 09:38:00,
2013-03-01 01:43:00,49.4,47.7,30.37,NE,48,0.0,-999.0,93,-99.99,,,-99.99,KANE Geotech, Inc.,2013-03-01 09:43:00,
2013-03-01 01:48:00,49.2,47.6,30.37,NE,48,0.0,-999.0,93,-99.99,,,-99.99,KANE Geotech, Inc.,2013-03-01 09:48:00,
2013-03-01 01:53:00,49.2,47.6,30.37,NE,48,0.0,-999.0,93,-99.99,,,-99.99,KANE Geotech, Inc.,2013-03-01 09:53:00,
2013-03-01 01:58:00,49.1,47.5,30.37,ENE,62,0.0,-999.0,94,-99.99,,,-99.99,KANE Geotech, Inc.,2013-03-01 09:58:00,
2013-03-01 02:03:00,48.8,47.2,30.37,East,89,0.0,-999.0,93,-99.99,,,-99.99,KANE Geotech, Inc.,2013-03-01 10:03:00,
2013-03-01 02:08:00,48.7,47.2,30.36,NE,53,0.0,-999.0,94,-99.99,,,-99.99,KANE Geotech, Inc.,2013-03-01 10:08:00,
2013-03-01 02:13:00,48.7,47.2,30.36,East,83,0.0,-999.0,94,-99.99,,,-99.99,KANE Geotech, Inc.,2013-03-01 10:13:00,
2013-03-01 02:18:00,48.6,47.2,30.36,East,86,0.0,-999.0,94,-99.99,,,-99.99,KANE Geotech, Inc.,2013-03-01 10:18:00,
2013-03-01 02:23:00,48.8,47.5,30.36,ENE,75,0.0,-999.0,95,-99.99,,,-99.99,KANE Geotech, Inc.,2013-03-01 10:23:00,
2013-03-01 02:28:00,48.8,47.3,30.36,East,94,0.0,-999.0,94,-99.99,,,-99.99,KANE Geotech, Inc.,2013-03-01 10:28:00,
2013-03-01 02:33:00,48.5,47.2,30.36,East,94,0.0,-999.0,94,-99.99,,,-99.99,KANE Geotech, Inc.,2013-03-01 10:33:00,
2013-03-01 02:38:00,48.4,47.1,30.36,East,94,0.0,-999.0,95,-99.99,,,-99.99,KANE Geotech, Inc.,2013-03-01 10:38:00,
2013-03-01 02:43:00,48.6,47.4,30.36,ENE,66,0.0,-999.0,95,-99.99,,,-99.99,KANE Geotech, Inc.,2013-03-01 10:43:00,
2013-03-01 02:48:00,48.4,47.1,30.35,ENE,66,0.0,-999.0,95,-99.99,,,-99.99,KANE Geotech, Inc.,2013-03-01 10:48:00,
2013-03-01 02:53:00,48.3,46.8,30.35,ENE,66,0.0,-999.0,94,-99.99,,,-99.99,KANE Geotech, Inc.,2013-03-01 10:53:00,
2013-03-01 02:58:00,48.1,46.8,30.35,ENE,66,0.0,-999.0,95,-99.99,,,-99.99,KANE Geotech, Inc.,2013-03-01 10:58:00,
2013-03-01 03:03:00,48.1,46.9,30.35,ENE,66,0.0,-999.0,95,-99.99,,,-99.99,KANE Geotech, Inc.,2013-03-01 11:03:00,
2013-03-01 03:08:00,48.4,47.4,30.35,ENE,72,0.0,-999.0,96,-99.99,,,-99.99,KANE Geotech, Inc.,2013-03-01 11:08:00,
2013-03-01 03:13:00,48.3,47.1,30.35,ESE,122,0.0,-999.0,95,-99.99,,,-99.99,KANE Geotech, Inc.,2013-03-01 11:13:00,
2013-03-01 03:18:00,48.1,46.8,30.35,ESE,122,0.0,-999.0,95,-99.99,,,-99.99,KANE Geotech, Inc.,2013-03-01 11:18:00,
2013-03-01 03:23:00,48.1,46.9,30.35,ESE,122,0.0,-999.0,95,-99.99,,,-99.99,KANE Geotech, Inc.,2013-03-01 11:23:00,
2013-03-01 03:28:00,48.2,47.0,30.34,ESE,122,0.0,-999.0,95,-99.99,,,-99.99,KANE Geotech, Inc.,2013-03-01 11:28:00,
2013-03-01 03:33:00,48.0,46.8,30.34,ESE,122,0.0,-999.0,95,-99.99,,,-99.99,KANE Geotech, Inc.,2013-03-01 11:33:00,
2013-03-01 03:38:00,48.0,46.7,30.34,ESE,122,0.0,-999.0,95,-99.99,,,-99.99,KANE Geotech, Inc.,2013-03-01 11:38:00,
2013-03-01 03:43:00,47.8,46.5,30.34,ESE,122,0.0,-999.0,95,-99.99,,,-99.99,KANE Geotech, Inc.,2013-03-01 11:43:00,
2013-03-01 03:48:00,47.7,46.6,30.34,East,86,0.0,-999.0,95,-99.99,,,-99.99,KANE Geotech, Inc.,2013-03-01 11:48:00,
2013-03-01 03:53:00,47.8,46.9,30.34,East,86,0.0,-999.0,96,-99.99,,,-99.99,KANE Geotech, Inc.,2013-03-01 11:53:00,
2013-03-01 03:58:00,47.7,46.8,30.35,ESE,104,0.0,-999.0,96,-99.99,,,-99.99,KANE Geotech, Inc.,2013-03-01 11:58:00,
2013-03-01 04:03:00,47.5,46.6,30.35,NNW,340,0.0,-999.0,96,-99.99,,,-99.99,KANE Geotech, Inc.,2013-03-01 12:03:00,
2013-03-01 04:08:00,47.3,46.6,30.35,NNW,340,0.0,-999.0,97,-99.99,,,-99.99,KANE Geotech, Inc.,2013-03-01 12:08:00,
2013-03-01 04:13:00,47.1,46.3,30.35,NNW,341,0.0,-999.0,97,-99.99,,,-99.99,KANE Geotech, Inc.,2013-03-01 12:13:00,
2013-03-01 04:18:00,46.9,46.1,30.35,NNW,340,0.0,-999.0,97,-99.99,,,-99.99,KANE Geotech, Inc.,2013-03-01 12:18:00,
2013-03-01 04:23:00,46.8,46.1,30.35,NNW,341,0.0,-999.0,97,-99.99,,,-99.99,KANE Geotech, Inc.,2013-03-01 12:23:00,
2013-03-01 04:28:00,46.5,45.9,30.34,NNW,341,0.0,-999.0,97,-99.99,,,-99.99,KANE Geotech, Inc.,2013-03-01 12:28:00,
2013-03-01 04:33:00,46.7,46.2,30.35,NNW,341,0.0,-999.0,97,-99.99,,,-99.99,KANE Geotech, Inc.,2013-03-01 12:33:00,
2013-03-01 04:38:00,46.6,46.1,30.35,NNW,340,0.0,-999.0,97,-99.99,,,-99.99,KANE Geotech, Inc.,2013-03-01 12:38:00,
2013-03-01 04:43:00,46.4,45.9,30.35,NNW,340,0.0,-999.0,97,-99.99,,,-99.99,KANE Geotech, Inc.,2013-03-01 12:43:00,
2013-03-01 04:48:00,46.6,46.1,30.35,NW,316,0.0,-999.0,98,-99.99,,,-99.99,KANE Geotech, Inc.,2013-03-01 12:48:00,
2013-03-01 04:53:00,47.0,46.5,30.35,WSW,238,0.0,-999.0,98,-99.99,,,-99.99,KANE Geotech, Inc.,2013-03-01 12:53:00,
2013-03-01 04:58:00,47.0,46.6,30.35,SW,229,0.0,-999.0,98,-99.99,,,-99.99,KANE Geotech, Inc.,2013-03-01 12:58:00,
2013-03-01 05:03:00,46.8,46.4,30.35,West,280,0.0,-999.0,98,-99.99,,,-99.99,KANE Geotech, Inc.,2013-03-01 13:03:00,
2013-03-01 05:08:00,46.6,46.2,30.35,West,261,0.0,-999.0,98,-99.99,,,-99.99,KANE Geotech, Inc.,2013-03-01 13:08:00,
2013-03-01 05:13:00,46.4,46.0,30.35,West,261,0.0,-999.0,98,-99.99,,,-99.99,KANE Geotech, Inc.,2013-03-01 13:13:00,
2013-03-01 05:18:00,46.2,45.8,30.35,West,261,0.0,-999.0,98,-99.99,,,-99.99,KANE Geotech, Inc.,2013-03-01 13:18:00,
2013-03-01 05:23:00,46.0,45.6,30.34,SSW,206,0.0,-999.0,98,-99.99,,,-99.99,KANE Geotech, Inc.,2013-03-01 13:23:00,
2013-03-01 05:28:00,45.9,45.5,30.34,SSW,206,0.0,-999.0,98,-99.99,,,-99.99,KANE Geotech, Inc.,2013-03-01 13:28:00,
2013-03-01 05:33:00,45.9,45.6,30.34,SSW,206,0.0,-999.0,98,-99.99,,,-99.99,KANE Geotech, Inc.,2013-03-01 13:33:00,
2013-03-01 05:38:00,45.9,45.7,30.34,SSW,206,0.0,-999.0,98,-99.99,,,-99.99,KANE Geotech, Inc.,2013-03-01 13:38:00,
2013-03-01 05:43:00,45.8,45.5,30.34,WSW,241,0.0,-999.0,98,-99.99,,,-99.99,KANE Geotech, Inc.,2013-03-01 13:43:00,
2013-03-01 05:48:00,45.9,45.6,30.34,WSW,250,0.0,-999.0,98,-99.99,,,-99.99,KANE Geotech, Inc.,2013-03-01 13:48:00,
2013-03-01 05:53:00,45.9,45.6,30.34,WNW,284,0.0,-999.0,98,-99.99,,,-99.99,KANE Geotech, Inc.,2013-03-01 13:53:00,
2013-03-01 05:58:00,45.6,45.3,30.34,WNW,289,0.0,-999.0,98,-99.99,,,-99.99,KANE Geotech, Inc.,2013-03-01 13:58:00,
2013-03-01 06:03:00,45.5,45.3,30.34,WNW,289,0.0,-999.0,99,-99.99,,,-99.99,KANE Geotech, Inc.,2013-03-01 14:03:00,
2013-03-01 06:08:00,45.6,45.5,30.34,WNW,289,0.0,-999.0,99,-99.99,,,-99.99,KANE Geotech, Inc.,2013-03-01 14:08:00,
2013-03-01 06:13:00,45.8,45.7,30.34,WNW,292,0.0,-999.0,99,-99.99,,,-99.99,KANE Geotech, Inc.,2013-03-01 14:13:00,
2013-03-01 06:18:00,45.7,45.6,30.34,WNW,292,0.0,-999.0,99,-99.99,,,-99.99,KANE Geotech, Inc.,2013-03-01 14:18:00,
2013-03-01 06:23:00,45.5,45.4,30.34,East,85,1.1,-999.0,99,-99.99,,,-99.99,KANE Geotech, Inc.,2013-03-01 14:23:00,
2013-03-01 06:28:00,45.2,45.1,30.34,East,95,0.0,-999.0,99,-99.99,,,-99.99,KANE Geotech, Inc.,2013-03-01 14:28:00,
2013-03-01 06:33:00,45.1,45.0,30.34,ENE,63,0.0,-999.0,99,-99.99,,,-99.99,KANE Geotech, Inc.,2013-03-01 14:33:00,
2013-03-01 06:38:00,45.1,44.9,30.34,NNE,19,0.0,-999.0,99,-99.99,,,-99.99,KANE Geotech, Inc.,2013-03-01 14:38:00,
2013-03-01 06:43:00,45.0,44.8,30.34,East,98,0.0,-999.0,99,-99.99,,,-99.99,KANE Geotech, Inc.,2013-03-01 14:43:00,
2013-03-01 06:48:00,45.0,44.8,30.34,NE,52,0.0,-999.0,98,-99.99,,,-99.99,KANE Geotech, Inc.,2013-03-01 14:48:00,
2013-03-01 06:53:00,45.5,45.2,30.34,ENE,70,0.0,-999.0,98,-99.99,,,-99.99,KANE Geotech, Inc.,2013-03-01 14:53:00,
2013-03-01 06:58:00,46.2,45.7,30.34,NNE,33,0.0,-999.0,98,-99.99,,,-99.99,KANE Geotech, Inc.,2013-03-01 14:58:00,
2013-03-01 07:03:00,47.1,46.3,30.34,ESE,120,0.0,-999.0,96,-99.99,,,-99.99,KANE Geotech, Inc.,2013-03-01 15:03:00,
2013-03-01 07:08:00,47.9,46.3,30.34,East,94,0.0,-999.0,94,-99.99,,,-99.99,KANE Geotech, Inc.,2013-03-01 15:08:00,
2013-03-01 07:13:00,48.3,46.2,30.34,East,83,0.0,-999.0,92,-99.99,,,-99.99,KANE Geotech, Inc.,2013-03-01 15:13:00,
2013-03-01 07:18:00,49.3,46.5,30.34,ESE,120,0.0,-999.0,89,-99.99,,,-99.99,KANE Geotech, Inc.,2013-03-01 15:18:00,
2013-03-01 07:23:00,50.7,47.1,30.34,NNE,14,0.0,-999.0,87,-99.99,,,-99.99,KANE Geotech, Inc.,2013-03-01 15:23:00,
2013-03-01 07:28:00,51.4,47.1,30.34,NNW,342,0.0,-999.0,85,-99.99,,,-99.99,KANE Geotech, Inc.,2013-03-01 15:28:00,
2013-03-01 07:33:00,52.2,47.7,30.34,NNW,335,0.0,-999.0,84,-99.99,,,-99.99,KANE Geotech, Inc.,2013-03-01 15:33:00,
2013-03-01 07:38:00,53.0,47.6,30.34,SE,130,0.0,-999.0,81,-99.99,,,-99.99,KANE Geotech, Inc.,2013-03-01 15:38:00,
2013-03-01 07:43:00,53.0,47.8,30.34,ESE,103,0.0,-999.0,82,-99.99,,,-99.99,KANE Geotech, Inc.,2013-03-01 15:43:00,
2013-03-01 07:48:00,53.9,48.3,30.35,ENE,75,0.0,-999.0,81,-99.99,,,-99.99,KANE Geotech, Inc.,2013-03-01 15:48:00,
2013-03-01 07:53:00,54.6,48.8,30.35,SSE,154,0.0,-999.0,80,-99.99,,,-99.99,KANE Geotech, Inc.,2013-03-01 15:53:00,
2013-03-01 07:58:00,55.0,48.8,30.35,SE,145,0.0,-999.0,79,-99.99,,,-99.99,KANE Geotech, Inc.,2013-03-01 15:58:00,
2013-03-01 08:03:00,56.1,49.5,30.35,ENE,59,0.0,-999.0,78,-99.99,,,-99.99,KANE Geotech, Inc.,2013-03-01 16:03:00,
2013-03-01 08:08:00,57.1,49.7,30.35,NE,37,0.0,-999.0,76,-99.99,,,-99.99,KANE Geotech, Inc.,2013-03-01 16:08:00,
2013-03-01 08:13:00,57.7,49.8,30.35,NNE,27,0.0,-999.0,74,-99.99,,,-99.99,KANE Geotech, Inc.,2013-03-01 16:13:00,
2013-03-01 08:18:00,57.8,49.7,30.35,North,8,1.2,-999.0,74,-99.99,,,-99.99,KANE Geotech, Inc.,2013-03-01 16:18:00,
2013-03-01 08:23:00,58.1,50.0,30.34,NE,37,0.0,-999.0,74,-99.99,,,-99.99,KANE Geotech, Inc.,2013-03-01 16:23:00,
2013-03-01 08:28:00,58.5,49.8,30.34,NNE,31,0.0,-999.0,72,-99.99,,,-99.99,KANE Geotech, Inc.,2013-03-01 16:28:00,
2013-03-01 08:33:00,58.6,49.9,30.34,WNW,293,0.0,-999.0,72,-99.99,,,-99.99,KANE Geotech, Inc.,2013-03-01 16:33:00,
2013-03-01 08:38:00,57.7,49.6,30.34,WNW,301,0.0,-999.0,74,-99.99,,,-99.99,KANE Geotech, Inc.,2013-03-01 16:38:00,
2013-03-01 08:43:00,58.7,50.3,30.34,WNW,289,0.0,-999.0,73,-99.99,,,-99.99,KANE Geotech, Inc.,2013-03-01 16:43:00,
2013-03-01 08:48:00,57.8,49.3,30.34,WNW,286,0.0,-999.0,73,-99.99,,,-99.99,KANE Geotech, Inc.,2013-03-01 16:48:00,
2013-03-01 08:53:00,57.3,49.3,30.34,WSW,237,0.0,-999.0,74,-99.99,,,-99.99,KANE Geotech, Inc.,2013-03-01 16:53:00,
2013-03-01 08:58:00,56.7,49.1,30.34,NNE,17,0.0,-999.0,75,-99.99,,,-99.99,KANE Geotech, Inc.,2013-03-01 16:58:00,
2013-03-01 09:03:00,57.2,49.3,30.34,WSW,247,0.0,-999.0,74,-99.99,,,-99.99,KANE Geotech, Inc.,2013-03-01 17:03:00,
2013-03-01 09:08:00,58.7,50.1,30.34,West,278,0.9,-999.0,72,-99.99,,,-99.99,KANE Geotech, Inc.,2013-03-01 17:08:00,
2013-03-01 09:13:00,59.2,49.8,30.34,WSW,245,2.8,-999.0,70,-99.99,,,-99.99,KANE Geotech, Inc.,2013-03-01 17:13:00,
2013-03-01 09:18:00,59.6,49.5,30.34,NW,320,2.9,-999.0,69,-99.99,,,-99.99,KANE Geotech, Inc.,2013-03-01 17:18:00,
2013-03-01 09:23:00,59.4,49.3,30.34,West,272,0.0,-999.0,69,-99.99,,,-99.99,KANE Geotech, Inc.,2013-03-01 17:23:00,
2013-03-01 09:28:00,59.6,49.8,30.34,NW,304,0.0,-999.0,69,-99.99,,,-99.99,KANE Geotech, Inc.,2013-03-01 17:28:00,
2013-03-01 09:33:00,59.4,49.7,30.34,WNW,283,0.0,-999.0,70,-99.99,,,-99.99,KANE Geotech, Inc.,2013-03-01 17:33:00,
2013-03-01 09:38:00,60.7,50.1,30.34,North,1,0.0,-999.0,67,-99.99,,,-99.99,KANE Geotech, Inc.,2013-03-01 17:38:00,
2013-03-01 09:43:00,61.3,49.5,30.34,WSW,241,0.0,-999.0,65,-99.99,,,-99.99,KANE Geotech, Inc.,2013-03-01 17:43:00,
2013-03-01 09:48:00,62.1,50.1,30.34,West,274,0.0,-999.0,64,-99.99,,,-99.99,KANE Geotech, Inc.,2013-03-01 17:48:00,
2013-03-01 09:53:00,62.5,49.7,30.34,WNW,295,0.0,-999.0,62,-99.99,,,-99.99,KANE Geotech, Inc.,2013-03-01 17:53:00,
2013-03-01 09:58:00,63.1,50.8,30.35,SSW,200,0.0,-999.0,64,-99.99,,,-99.99,KANE Geotech, Inc.,2013-03-01 17:58:00,
2013-03-01 10:03:00,62.8,50.8,30.35,SSW,202,1.2,-999.0,64,-99.99,,,-99.99,KANE Geotech, Inc.,2013-03-01 18:03:00,
2013-03-01 10:08:00,63.7,50.9,30.35,West,272,0.0,-999.0,62,-99.99,,,-99.99,KANE Geotech, Inc.,2013-03-01 18:08:00,
2013-03-01 10:13:00,64.1,50.3,30.34,SW,231,2.2,-999.0,60,-99.99,,,-99.99,KANE Geotech, Inc.,2013-03-01 18:13:00,
2013-03-01 10:18:00,64.6,49.4,30.34,West,265,0.0,-999.0,57,-99.99,,,-99.99,KANE Geotech, Inc.,2013-03-01 18:18:00,
2013-03-01 10:23:00,65.4,49.9,30.35,WNW,299,1.4,-999.0,57,-99.99,,,-99.99,KANE Geotech, Inc.,2013-03-01 18:23:00,
2013-03-01 10:28:00,66.1,49.5,30.35,NW,326,0.0,-999.0,54,-99.99,,,-99.99,KANE Geotech, Inc.,2013-03-01 18:28:00,
2013-03-01 10:33:00,66.8,49.7,30.35,SSE,160,0.0,-999.0,54,-99.99,,,-99.99,KANE Geotech, Inc.,2013-03-01 18:33:00,
2013-03-01 10:38:00,67.1,49.1,30.34,WNW,303,3.1,-999.0,52,-99.99,,,-99.99,KANE Geotech, Inc.,2013-03-01 18:38:00,
2013-03-01 10:43:00,66.1,49.3,30.34,NW,315,1.4,-999.0,54,-99.99,,,-99.99,KANE Geotech, Inc.,2013-03-01 18:43:00,
2013-03-01 10:48:00,67.4,50.0,30.34,WNW,291,0.0,-999.0,53,-99.99,,,-99.99,KANE Geotech, Inc.,2013-03-01 18:48:00,
2013-03-01 10:53:00,67.6,48.3,30.33,WSW,249,3.1,-999.0,49,-99.99,,,-99.99,KANE Geotech, Inc.,2013-03-01 18:53:00,
2013-03-01 10:58:00,67.6,48.7,30.34,ENE,65,2.8,-999.0,50,-99.99,,,-99.99,KANE Geotech, Inc.,2013-03-01 18:58:00,
2013-03-01 11:03:00,67.2,48.5,30.33,WNW,291,5.6,-999.0,51,-99.99,,,-99.99,KANE Geotech, Inc.,2013-03-01 19:03:00,
2013-03-01 11:08:00,68.1,49.4,30.33,ENE,72,1.2,-999.0,51,-99.99,,,-99.99,KANE Geotech, Inc.,2013-03-01 19:08:00,
2013-03-01 11:13:00,68.9,49.2,30.33,WSW,242,3.2,-999.0,49,-99.99,,,-99.99,KANE Geotech, Inc.,2013-03-01 19:13:00,
2013-03-01 11:18:00,68.9,49.3,30.33,West,274,2.2,-999.0,49,-99.99,,,-99.99,KANE Geotech, Inc.,2013-03-01 19:18:00,
2013-03-01 11:23:00,68.0,49.0,30.33,West,261,1.1,-999.0,50,-99.99,,,-99.99,KANE Geotech, Inc.,2013-03-01 19:23:00,
2013-03-01 11:28:00,68.2,49.7,30.33,SSW,205,1.1,-999.0,51,-99.99,,,-99.99,KANE Geotech, Inc.,2013-03-01 19:28:00,
2013-03-01 11:33:00,68.4,49.7,30.33,SW,224,3.1,-999.0,51,-99.99,,,-99.99,KANE Geotech, Inc.,2013-03-01 19:33:00,
2013-03-01 11:38:00,69.2,49.3,30.32,SSW,199,2.6,-999.0,48,-99.99,,,-99.99,KANE Geotech, Inc.,2013-03-01 19:38:00,
2013-03-01 11:43:00,69.2,50.3,30.32,WSW,248,0.0,-999.0,50,-99.99,,,-99.99,KANE Geotech, Inc.,2013-03-01 19:43:00,
2013-03-01 11:48:00,69.3,49.0,30.32,WNW,300,3.1,-999.0,48,-99.99,,,-99.99,KANE Geotech, Inc.,2013-03-01 19:48:00,
2013-03-01 11:53:00,69.6,48.8,30.32,WSW,257,3.4,-999.0,47,-99.99,,,-99.99,KANE Geotech, Inc.,2013-03-01 19:53:00,
2013-03-01 11:58:00,70.0,48.7,30.31,WSW,239,0.0,-999.0,46,-99.99,,,-99.99,KANE Geotech, Inc.,2013-03-01 19:58:00,
2013-03-01 12:03:00,71.1,48.1,30.31,NNW,346,2.9,-999.0,44,-99.99,,,-99.99,KANE Geotech, Inc.,2013-03-01 20:03:00,
2013-03-01 12:08:00,70.8,48.5,30.30,North,2,4.4,-999.0,45,-99.99,,,-99.99,KANE Geotech, Inc.,2013-03-01 20:08:00,
2013-03-01 12:13:00,71.0,49.7,30.29,WSW,253,0.0,-999.0,46,-99.99,,,-99.99,KANE Geotech, Inc.,2013-03-01 20:13:00,
2013-03-01 12:18:00,71.1,48.8,30.29,WNW,283,1.9,-999.0,45,-99.99,,,-99.99,KANE Geotech, Inc.,2013-03-01 20:18:00,
2013-03-01 12:23:00,70.2,49.5,30.29,WNW,301,0.0,-999.0,47,-99.99,,,-99.99,KANE Geotech, Inc.,2013-03-01 20:23:00,
2013-03-01 12:28:00,72.2,50.3,30.29,West,262,0.9,-999.0,45,-99.99,,,-99.99,KANE Geotech, Inc.,2013-03-01 20:28:00,
2013-03-01 12:34:00,71.4,48.8,30.28,WNW,299,2.7,-999.0,44,-99.99,,,-99.99,KANE Geotech, Inc.,2013-03-01 20:34:00,
2013-03-01 12:39:00,72.4,49.8,30.28,North,5,2.2,-999.0,44,-99.99,,,-99.99,KANE Geotech, Inc.,2013-03-01 20:39:00,
2013-03-01 12:44:00,72.1,49.5,30.27,SW,228,0.0,-999.0,44,-99.99,,,-99.99,KANE Geotech, Inc.,2013-03-01 20:44:00,
2013-03-01 12:49:00,73.3,49.4,30.27,WNW,282,0.9,3.4,42,-99.99,,,-99.99,KANE Geotech, Inc.,2013-03-01 20:49:00,
2013-03-01 12:54:00,72.9,49.2,30.27,WSW,247,1.1,-999.0,43,-99.99,,,-99.99,KANE Geotech, Inc.,2013-03-01 20:54:00,
2013-03-01 12:59:00,72.4,49.1,30.26,NW,309,0.0,-999.0,43,-99.99,,,-99.99,KANE Geotech, Inc.,2013-03-01 20:59:00,
2013-03-01 13:04:00,72.1,49.2,30.26,WNW,298,0.0,-999.0,44,-99.99,,,-99.99,KANE Geotech, Inc.,2013-03-01 21:04:00,
2013-03-01 13:09:00,73.8,49.6,30.25,WNW,295,1.8,-999.0,42,-99.99,,,-99.99,KANE Geotech, Inc.,2013-03-01 21:09:00,
2013-03-01 13:14:00,74.5,50.6,30.26,SE,134,1.9,-999.0,43,-99.99,,,-99.99,KANE Geotech, Inc.,2013-03-01 21:14:00,
2013-03-01 13:19:00,74.7,48.4,30.25,NE,48,1.2,-999.0,39,-99.99,,,-99.99,KANE Geotech, Inc.,2013-03-01 21:19:00,
2013-03-01 13:24:00,75.5,49.1,30.25,NE,53,2.2,-999.0,39,-99.99,,,-99.99,KANE Geotech, Inc.,2013-03-01 21:24:00,
2013-03-01 13:29:00,75.0,48.7,30.25,ESE,116,1.4,-999.0,39,-99.99,,,-99.99,KANE Geotech, Inc.,2013-03-01 21:29:00,
2013-03-01 13:34:00,74.9,48.8,30.25,South,181,1.4,-999.0,39,-99.99,,,-99.99,KANE Geotech, Inc.,2013-03-01 21:34:00,
2013-03-01 13:39:00,75.0,48.0,30.24,WSW,249,1.2,-999.0,38,-99.99,,,-99.99,KANE Geotech, Inc.,2013-03-01 21:39:00,
2013-03-01 13:44:00,76.0,48.1,30.24,NE,49,1.4,-999.0,37,-99.99,,,-99.99,KANE Geotech, Inc.,2013-03-01 21:44:00,
2013-03-01 13:49:00,74.6,47.7,30.24,ENE,57,0.0,-999.0,38,-99.99,,,-99.99,KANE Geotech, Inc.,2013-03-01 21:49:00,
2013-03-01 13:54:00,75.7,47.9,30.24,NNE,13,0.0,-999.0,37,-99.99,,,-99.99,KANE Geotech, Inc.,2013-03-01 21:54:00,
2013-03-01 13:59:00,75.1,47.4,30.24,SW,222,0.0,-999.0,37,-99.99,,,-99.99,KANE Geotech, Inc.,2013-03-01 21:59:00,
2013-03-01 14:04:00,74.3,47.8,30.24,SSE,148,0.0,-999.0,38,-99.99,,,-99.99,KANE Geotech, Inc.,2013-03-01 22:04:00,
2013-03-01 14:09:00,75.7,48.1,30.24,WNW,285,2.8,-999.0,37,-99.99,,,-99.99,KANE Geotech, Inc.,2013-03-01 22:09:00,
2013-03-01 14:14:00,75.0,49.7,30.23,South,183,0.0,-999.0,40,-99.99,,,-99.99,KANE Geotech, Inc.,2013-03-01 22:14:00,
2013-03-01 14:19:00,76.1,48.8,30.23,NNW,333,4.8,-999.0,38,-99.99,,,-99.99,KANE Geotech, Inc.,2013-03-01 22:19:00,
2013-03-01 14:24:00,76.2,48.8,30.23,WSW,246,0.0,-999.0,37,-99.99,,,-99.99,KANE Geotech, Inc.,2013-03-01 22:24:00,
2013-03-01 14:29:00,77.0,49.4,30.23,ESE,122,1.4,-999.0,37,-99.99,,,-99.99,KANE Geotech, Inc.,2013-03-01 22:29:00,
2013-03-01 14:34:00,76.4,48.0,30.23,North,350,0.0,-999.0,36,-99.99,,,-99.99,KANE Geotech, Inc.,2013-03-01 22:34:00,
2013-03-01 14:39:00,76.6,49.8,30.23,South,189,3.8,-999.0,38,-99.99,,,-99.99,KANE Geotech, Inc.,2013-03-01 22:39:00,
2013-03-01 14:44:00,75.8,48.9,30.23,NW,306,4.4,-999.0,38,-99.99,,,-99.99,KANE Geotech, Inc.,2013-03-01 22:44:00,
2013-03-01 14:49:00,76.1,49.0,30.22,West,279,3.2,-999.0,38,-99.99,,,-99.99,KANE Geotech, Inc.,2013-03-01 22:49:00,
2013-03-01 14:54:00,76.2,49.2,30.22,WSW,239,0.0,-999.0,38,-99.99,,,-99.99,KANE Geotech, Inc.,2013-03-01 22:54:00,
2013-03-01 14:59:00,75.6,49.3,30.23,WNW,289,0.0,-999.0,39,-99.99,,,-99.99,KANE Geotech, Inc.,2013-03-01 22:59:00,
2013-03-01 15:04:00,75.6,47.6,30.23,West,272,0.0,-999.0,37,-99.99,,,-99.99,KANE Geotech, Inc.,2013-03-01 23:04:00,
2013-03-01 15:09:00,76.1,49.1,30.22,SW,235,0.0,-999.0,38,-99.99,,,-99.99,KANE Geotech, Inc.,2013-03-01 23:09:00,
2013-03-01 15:14:00,76.3,47.7,30.23,WSW,247,1.6,-999.0,36,-99.99,,,-99.99,KANE Geotech, Inc.,2013-03-01 23:14:00,
2013-03-01 15:19:00,76.2,48.6,30.23,West,278,0.0,-999.0,37,-99.99,,,-99.99,KANE Geotech, Inc.,2013-03-01 23:19:00,
2013-03-01 15:24:00,76.2,46.5,30.22,North,2,1.1,-999.0,34,-99.99,,,-99.99,KANE Geotech, Inc.,2013-03-01 23:24:00,
2013-03-01 15:29:00,76.7,48.2,30.22,NW,324,0.0,-999.0,36,-99.99,,,-99.99,KANE Geotech, Inc.,2013-03-01 23:29:00,
2013-03-01 15:34:00,77.4,47.9,30.22,West,275,0.0,-999.0,35,-99.99,,,-99.99,KANE Geotech, Inc.,2013-03-01 23:34:00,
2013-03-01 15:39:00,76.5,46.8,30.22,WNW,287,2.4,-999.0,34,-99.99,,,-99.99,KANE Geotech, Inc.,2013-03-01 23:39:00,
2013-03-01 15:44:00,76.0,45.8,30.22,West,276,2.6,-999.0,34,-99.99,,,-99.99,KANE Geotech, Inc.,2013-03-01 23:44:00,
2013-03-01 15:49:00,75.6,45.6,30.22,SE,127,0.0,-999.0,34,-99.99,,,-99.99,KANE Geotech, Inc.,2013-03-01 23:49:00,
2013-03-01 15:54:00,75.0,44.3,30.22,South,187,1.4,-999.0,33,-99.99,,,-99.99,KANE Geotech, Inc.,2013-03-01 23:54:00,
2013-03-01 15:59:00,74.9,45.5,30.22,WNW,302,0.0,-999.0,35,-99.99,,,-99.99,KANE Geotech, Inc.,2013-03-01 23:59:00,
2013-03-01 16:04:00,74.9,45.9,30.22,East,96,0.0,-999.0,35,-99.99,,,-99.99,KANE Geotech, Inc.,2013-03-02 00:04:00,
2013-03-01 16:09:00,74.3,46.3,30.22,West,262,0.0,-999.0,36,-99.99,,,-99.99,KANE Geotech, Inc.,2013-03-02 00:09:00,
2013-03-01 16:14:00,74.1,46.9,30.22,WNW,289,0.0,-999.0,37,-99.99,,,-99.99,KANE Geotech, Inc.,2013-03-02 00:14:00,
2013-03-01 16:19:00,74.8,46.4,30.22,NE,35,2.1,-999.0,36,-99.99,,,-99.99,KANE Geotech, Inc.,2013-03-02 00:19:00,
2013-03-01 16:24:00,74.8,47.2,30.22,SSW,205,0.0,-999.0,37,-99.99,,,-99.99,KANE Geotech, Inc.,2013-03-02 00:24:00,
2013-03-01 16:29:00,74.2,46.6,30.21,NNW,344,0.0,-999.0,37,-99.99,,,-99.99,KANE Geotech, Inc.,2013-03-02 00:29:00,
2013-03-01 16:34:00,73.8,47.2,30.21,WSW,238,0.0,-999.0,38,-99.99,,,-99.99,KANE Geotech, Inc.,2013-03-02 00:34:00,
2013-03-01 16:39:00,74.1,46.5,30.21,WNW,282,3.1,-999.0,37,-99.99,,,-99.99,KANE Geotech, Inc.,2013-03-02 00:39:00,
2013-03-01 16:44:00,74.3,47.0,30.21,West,265,0.0,-999.0,37,-99.99,,,-99.99,KANE Geotech, Inc.,2013-03-02 00:44:00,
2013-03-01 16:49:00,73.7,46.7,30.21,West,272,3.8,-999.0,38,-99.99,,,-99.99,KANE Geotech, Inc.,2013-03-02 00:49:00,
2013-03-01 16:54:00,72.9,47.3,30.21,SSW,198,0.0,-999.0,40,-99.99,,,-99.99,KANE Geotech, Inc.,2013-03-02 00:54:00,
2013-03-01 16:59:00,73.1,47.2,30.20,WSW,252,1.2,-999.0,39,-99.99,,,-99.99,KANE Geotech, Inc.,2013-03-02 00:59:00,
2013-03-01 17:04:00,72.8,47.8,30.21,NNW,335,0.0,-999.0,41,-99.99,,,-99.99,KANE Geotech, Inc.,2013-03-02 01:04:00,
2013-03-01 17:09:00,72.6,47.6,30.21,SSW,211,0.0,-999.0,40,-99.99,,,-99.99,KANE Geotech, Inc.,2013-03-02 01:09:00,
2013-03-01 17:14:00,72.3,48.5,30.21,West,279,1.4,-999.0,42,-99.99,,,-99.99,KANE Geotech, Inc.,2013-03-02 01:14:00,
2013-03-01 17:19:00,71.6,47.5,30.21,WNW,295,0.9,-999.0,42,-99.99,,,-99.99,KANE Geotech, Inc.,2013-03-02 01:19:00,
2013-03-01 17:24:00,71.3,47.4,30.21,NNE,32,1.4,-999.0,42,-99.99,,,-99.99,KANE Geotech, Inc.,2013-03-02 01:24:00,
2013-03-01 17:29:00,70.9,47.3,30.21,WNW,285,1.1,-999.0,42,-99.99,,,-99.99,KANE Geotech, Inc.,2013-03-02 01:29:00,
2013-03-01 17:34:00,70.5,47.2,30.21,SW,227,0.0,-999.0,43,-99.99,,,-99.99,KANE Geotech, Inc.,2013-03-02 01:34:00,
2013-03-01 17:39:00,70.0,47.1,30.21,West,261,0.0,-999.0,43,-99.99,,,-99.99,KANE Geotech, Inc.,2013-03-02 01:39:00,
2013-03-01 17:44:00,69.4,47.5,30.20,West,262,0.0,-999.0,45,-99.99,,,-99.99,KANE Geotech, Inc.,2013-03-02 01:44:00,
2013-03-01 17:49:00,68.8,47.7,30.20,West,272,0.0,-999.0,46,-99.99,,,-99.99,KANE Geotech, Inc.,2013-03-02 01:49:00,
2013-03-01 17:54:00,68.2,47.3,30.21,SW,235,0.0,-999.0,47,-99.99,,,-99.99,KANE Geotech, Inc.,2013-03-02 01:54:00,
2013-03-01 17:59:00,67.9,47.9,30.21,WSW,239,0.0,-999.0,48,-99.99,,,-99.99,KANE Geotech, Inc.,2013-03-02 01:59:00,
2013-03-01 18:04:00,67.5,48.4,30.21,WSW,239,0.0,-999.0,50,-99.99,,,-99.99,KANE Geotech, Inc.,2013-03-02 02:04:00,
2013-03-01 18:09:00,66.7,49.0,30.21,SSW,211,0.0,-999.0,52,-99.99,,,-99.99,KANE Geotech, Inc.,2013-03-02 02:09:00,
2013-03-01 18:14:00,66.0,48.9,30.21,SSW,211,0.0,-999.0,54,-99.99,,,-99.99,KANE Geotech, Inc.,2013-03-02 02:14:00,
2013-03-01 18:19:00,65.3,48.7,30.21,SSW,211,0.0,-999.0,54,-99.99,,,-99.99,KANE Geotech, Inc.,2013-03-02 02:19:00,
2013-03-01 18:24:00,65.1,48.6,30.21,SW,226,0.0,-999.0,55,-99.99,,,-99.99,KANE Geotech, Inc.,2013-03-02 02:24:00,
2013-03-01 18:29:00,64.9,48.6,30.21,SSW,212,0.0,-999.0,55,-99.99,,,-99.99,KANE Geotech, Inc.,2013-03-02 02:29:00,
2013-03-01 18:34:00,64.6,49.0,30.21,SSW,212,0.0,-999.0,56,-99.99,,,-99.99,KANE Geotech, Inc.,2013-03-02 02:34:00,
2013-03-01 18:39:00,64.2,48.8,30.21,SSW,212,0.0,-999.0,57,-99.99,,,-99.99,KANE Geotech, Inc.,2013-03-02 02:39:00,
2013-03-01 18:44:00,63.9,48.5,30.21,SSW,213,0.0,-999.0,57,-99.99,,,-99.99,KANE Geotech, Inc.,2013-03-02 02:44:00,
2013-03-01 18:49:00,64.8,48.4,30.21,WNW,299,0.0,-999.0,55,-99.99,,,-99.99,KANE Geotech, Inc.,2013-03-02 02:49:00,
2013-03-01 18:54:00,64.4,48.6,30.22,WNW,299,0.0,-999.0,56,-99.99,,,-99.99,KANE Geotech, Inc.,2013-03-02 02:54:00,
2013-03-01 18:59:00,63.8,48.1,30.20,WNW,299,0.0,-999.0,56,-99.99,,,-99.99,KANE Geotech, Inc.,2013-03-02 02:59:00,
2013-03-01 19:04:00,64.4,48.3,30.21,WNW,299,0.0,-999.0,55,-99.99,,,-99.99,KANE Geotech, Inc.,2013-03-02 03:04:00,
2013-03-01 19:09:00,63.9,49.2,30.21,WNW,299,0.0,-999.0,58,-99.99,,,-99.99,KANE Geotech, Inc.,2013-03-02 03:09:00,
2013-03-01 19:14:00,63.2,49.1,30.21,WNW,298,0.0,-999.0,59,-99.99,,,-99.99,KANE Geotech, Inc.,2013-03-02 03:14:00,
2013-03-01 19:19:00,62.7,52.0,30.21,WNW,298,0.0,-999.0,68,-99.99,,,-99.99,KANE Geotech, Inc.,2013-03-02 03:19:00,
2013-03-01 19:24:00,62.0,50.9,30.21,West,274,0.0,-999.0,66,-99.99,,,-99.99,KANE Geotech, Inc.,2013-03-02 03:24:00,
2013-03-01 19:29:00,61.3,50.2,30.21,West,264,0.0,-999.0,66,-99.99,,,-99.99,KANE Geotech, Inc.,2013-03-02 03:29:00,
2013-03-01 19:34:00,60.8,50.0,30.21,WSW,245,0.0,-999.0,67,-99.99,,,-99.99,KANE Geotech, Inc.,2013-03-02 03:34:00,
2013-03-01 19:39:00,60.4,49.2,30.21,WSW,249,0.0,-999.0,66,-99.99,,,-99.99,KANE Geotech, Inc.,2013-03-02 03:39:00,
2013-03-01 19:44:00,60.4,49.3,30.21,SW,227,0.0,-999.0,66,-99.99,,,-99.99,KANE Geotech, Inc.,2013-03-02 03:44:00,
2013-03-01 19:49:00,60.2,50.1,30.21,West,262,0.0,-999.0,69,-99.99,,,-99.99,KANE Geotech, Inc.,2013-03-02 03:49:00,
2013-03-01 19:54:00,59.9,49.7,30.21,West,269,0.0,-999.0,68,-99.99,,,-99.99,KANE Geotech, Inc.,2013-03-02 03:54:00,
2013-03-01 19:59:00,59.8,49.8,30.21,West,269,0.0,-999.0,69,-99.99,,,-99.99,KANE Geotech, Inc.,2013-03-02 03:59:00,
2013-03-01 20:04:00,59.5,49.5,30.21,WSW,242,0.0,-999.0,69,-99.99,,,-99.99,KANE Geotech, Inc.,2013-03-02 04:04:00,
2013-03-01 20:09:00,59.2,49.5,30.22,WSW,240,0.0,-999.0,69,-99.99,,,-99.99,KANE Geotech, Inc.,2013-03-02 04:09:00,
2013-03-01 20:14:00,59.1,49.3,30.22,SW,217,0.0,-999.0,69,-99.99,,,-99.99,KANE Geotech, Inc.,2013-03-02 04:14:00,
2013-03-01 20:19:00,58.9,49.1,30.22,SW,217,0.0,-999.0,69,-99.99,,,-99.99,KANE Geotech, Inc.,2013-03-02 04:19:00,
2013-03-01 20:24:00,59.0,48.9,30.22,WSW,258,0.0,-999.0,69,-99.99,,,-99.99,KANE Geotech, Inc.,2013-03-02 04:24:00,
2013-03-01 20:29:00,58.8,48.7,30.21,WSW,258,0.0,-999.0,69,-99.99,,,-99.99,KANE Geotech, Inc.,2013-03-02 04:29:00,
2013-03-01 20:34:00,58.4,49.0,30.21,WSW,258,0.0,-999.0,70,-99.99,,,-99.99,KANE Geotech, Inc.,2013-03-02 04:34:00,
2013-03-01 20:39:00,58.5,49.2,30.21,West,267,0.0,-999.0,71,-99.99,,,-99.99,KANE Geotech, Inc.,2013-03-02 04:39:00,
2013-03-01 20:44:00,58.2,49.2,30.21,West,267,0.0,-999.0,71,-99.99,,,-99.99,KANE Geotech, Inc.,2013-03-02 04:44:00,
2013-03-01 20:49:00,58.0,49.1,30.22,West,267,0.0,-999.0,72,-99.99,,,-99.99,KANE Geotech, Inc.,2013-03-02 04:49:00,
2013-03-01 20:54:00,57.7,49.0,30.22,West,267,0.0,-999.0,72,-99.99,,,-99.99,KANE Geotech, Inc.,2013-03-02 04:54:00,
2013-03-01 20:59:00,57.6,48.8,30.22,West,267,0.0,-999.0,72,-99.99,,,-99.99,KANE Geotech, Inc.,2013-03-02 04:59:00,
2013-03-01 21:00:00,57.6,48.9,30.22,West,267,0.0,-999.0,72,-99.99,,,-99.99,KANE Geotech, Inc.,2013-03-02 05:00:00,
2013-03-01 21:01:00,57.6,48.9,30.22,West,267,0.0,0.0,72,-99.99,,,-99.99,KANE Geotech, Inc.,2013-03-02 05:01:00,
2013-03-01 21:03:00,57.6,48.9,30.22,West,267,0.0,0.0,72,-99.99,,,-99.99,KANE Geotech, Inc.,2013-03-02 05:03:00,
2013-03-01 21:08:00,57.4,48.8,30.22,West,267,0.0,-999.0,73,-99.99,,,-99.99,KANE Geotech, Inc.,2013-03-02 05:08:00,
2013-03-01 21:13:00,57.2,49.0,30.22,West,267,0.0,-999.0,73,-99.99,,,-99.99,KANE Geotech, Inc.,2013-03-02 05:13:00,
2013-03-01 21:18:00,57.6,48.9,30.22,West,267,0.0,-999.0,72,-99.99,,,-99.99,KANE Geotech, Inc.,2013-03-02 05:18:00,
2013-03-01 21:19:00,57.7,48.9,30.22,West,267,0.0,0.0,72,-99.99,,,-99.99,KANE Geotech, Inc.,2013-03-02 05:19:00,
2013-03-01 21:24:00,57.3,48.8,30.22,West,267,0.0,-999.0,72,-99.99,,,-99.99,KANE Geotech, Inc.,2013-03-02 05:24:00,
2013-03-01 21:29:00,57.3,49.2,30.22,West,267,0.0,0.0,74,-99.99,,,-99.99,KANE Geotech, Inc.,2013-03-02 05:29:00,
2013-03-01 21:34:00,57.0,48.9,30.22,West,267,0.0,-999.0,74,-99.99,,,-99.99,KANE Geotech, Inc.,2013-03-02 05:34:00,
2013-03-01 21:39:00,56.7,48.9,30.22,West,267,0.0,-999.0,75,-99.99,,,-99.99,KANE Geotech, Inc.,2013-03-02 05:39:00,
2013-03-01 21:44:00,56.2,48.7,30.22,West,267,0.0,-999.0,75,-99.99,,,-99.99,KANE Geotech, Inc.,2013-03-02 05:44:00,
2013-03-01 21:49:00,56.0,49.0,30.21,West,267,0.0,-999.0,77,-99.99,,,-99.99,KANE Geotech, Inc.,2013-03-02 05:49:00,
2013-03-01 21:54:00,55.8,48.9,30.21,West,267,0.0,-999.0,77,-99.99,,,-99.99,KANE Geotech, Inc.,2013-03-02 05:54:00,
2013-03-01 21:59:00,55.7,49.0,30.21,West,267,0.0,-999.0,77,-99.99,,,-99.99,KANE Geotech, Inc.,2013-03-02 05:59:00,
2013-03-01 22:04:00,56.4,48.5,30.21,East,97,1.2,-999.0,74,-99.99,,,-99.99,KANE Geotech, Inc.,2013-03-02 06:04:00,
2013-03-01 22:09:00,56.5,48.4,30.21,East,82,0.0,-999.0,74,-99.99,,,-99.99,KANE Geotech, Inc.,2013-03-02 06:09:00,
2013-03-01 22:14:00,56.5,48.5,30.20,East,82,0.0,-999.0,74,-99.99,,,-99.99,KANE Geotech, Inc.,2013-03-02 06:14:00,
2013-03-01 22:19:00,56.1,48.4,30.20,East,82,0.0,-999.0,75,-99.99,,,-99.99,KANE Geotech, Inc.,2013-03-02 06:19:00,
2013-03-01 22:24:00,56.0,48.3,30.20,East,82,0.0,-999.0,75,-99.99,,,-99.99,KANE Geotech, Inc.,2013-03-02 06:24:00,
2013-03-01 22:29:00,56.1,48.2,30.20,ENE,58,0.0,-999.0,74,-99.99,,,-99.99,KANE Geotech, Inc.,2013-03-02 06:29:00,
2013-03-01 22:34:00,56.1,48.3,30.20,ESE,102,0.0,-999.0,75,-99.99,,,-99.99,KANE Geotech, Inc.,2013-03-02 06:34:00,
2013-03-01 22:39:00,56.1,48.2,30.21,East,92,0.0,-999.0,74,-99.99,,,-99.99,KANE Geotech, Inc.,2013-03-02 06:39:00,
2013-03-01 22:44:00,55.5,48.1,30.21,East,92,0.0,-999.0,75,-99.99,,,-99.99,KANE Geotech, Inc.,2013-03-02 06:44:00,
2013-03-01 22:49:00,55.2,48.1,30.21,East,92,0.0,-999.0,76,-99.99,,,-99.99,KANE Geotech, Inc.,2013-03-02 06:49:00,
2013-03-01 22:54:00,54.8,48.2,30.21,East,94,0.0,-999.0,78,-99.99,,,-99.99,KANE Geotech, Inc.,2013-03-02 06:54:00,
2013-03-01 22:59:00,54.6,48.4,30.21,East,96,0.0,-999.0,79,-99.99,,,-99.99,KANE Geotech, Inc.,2013-03-02 06:59:00,
2013-03-01 23:04:00,54.6,48.5,30.21,East,92,0.0,-999.0,79,-99.99,,,-99.99,KANE Geotech, Inc.,2013-03-02 07:04:00,
2013-03-01 23:09:00,54.5,49.2,30.21,South,186,0.0,-999.0,82,-99.99,,,-99.99,KANE Geotech, Inc.,2013-03-02 07:09:00,
2013-03-01 23:14:00,54.4,49.6,30.21,SW,231,0.0,-999.0,83,-99.99,,,-99.99,KANE Geotech, Inc.,2013-03-02 07:14:00,
2013-03-01 23:19:00,53.8,49.0,30.21,WSW,255,0.0,-999.0,83,-99.99,,,-99.99,KANE Geotech, Inc.,2013-03-02 07:19:00,
2013-03-01 23:24:00,53.4,48.9,30.21,WSW,255,0.0,-999.0,84,-99.99,,,-99.99,KANE Geotech, Inc.,2013-03-02 07:24:00,
2013-03-01 23:29:00,53.7,48.5,30.21,ESE,107,0.0,-999.0,82,-99.99,,,-99.99,KANE Geotech, Inc.,2013-03-02 07:29:00,
2013-03-01 23:34:00,53.8,48.4,30.21,East,96,0.0,-999.0,81,-99.99,,,-99.99,KANE Geotech, Inc.,2013-03-02 07:34:00,
2013-03-01 23:39:00,53.5,48.3,30.20,WNW,286,0.0,-999.0,82,-99.99,,,-99.99,KANE Geotech, Inc.,2013-03-02 07:39:00,
2013-03-01 23:44:00,53.4,48.3,30.20,WNW,286,0.0,-999.0,82,-99.99,,,-99.99,KANE Geotech, Inc.,2013-03-02 07:44:00,
2013-03-01 23:49:00,53.5,48.2,30.20,WNW,286,0.0,-999.0,82,-99.99,,,-99.99,KANE Geotech, Inc.,2013-03-02 07:49:00,
2013-03-01 23:54:00,53.3,48.0,30.20,East,87,0.0,-999.0,82,-99.99,,,-99.99,KANE Geotech, Inc.,2013-03-02 07:54:00,
2013-03-01 23:59:00,53.3,48.0,30.20,East,96,0.0,-999.0,82,-99.99,,,-99.99,KANE Geotech, Inc.,2013-03-02 07:59:00,